Terminal Aerodrome Forecast
Issued by NWS

Home | Current Version | Previous Version | Text Only | Print | Product List | Glossary On
Versions: 1 2 3 4 5 6 7 8 9 10 11 12 13 14 15 16 17 18 19 20 21 22 23 24 25 26 27 28 29
000
FTUS42 KMFL 061142
TAFMIA
TAF
KMIA 061142Z 0612/0712 32006KT P6SM BKN080
     FM061500 32010KT P6SM FEW040
     FM061700 32014KT P6SM FEW250
     FM070100 31006KT P6SM SKC=

USA.gov is the U.S. government's official web portal to all federal, state and local government web resources and services.